createdAt,value
2023-03-01T00:01:56.291Z,51.34
2023-03-01T00:04:24.645Z,51.17
2023-03-01T00:06:53.121Z,51.07
2023-03-01T00:09:21.454Z,51.13
2023-03-01T00:11:51.198Z,51.36
2023-03-01T00:14:19.442Z,51.30
2023-03-01T00:16:48.247Z,51.33
2023-03-01T00:19:19.339Z,51.38
2023-03-01T00:21:47.393Z,51.48
2023-03-01T00:24:16.236Z,51.50
2023-03-01T00:26:45.389Z,51.68
2023-03-01T00:29:13.903Z,51.92
2023-03-01T00:31:42.512Z,51.97
2023-03-01T00:34:13.848Z,51.91
2023-03-01T00:36:42.879Z,51.85
2023-03-01T00:39:16.617Z,51.57
2023-03-01T00:41:45.755Z,51.45
2023-03-01T00:44:14.263Z,51.27
2023-03-01T00:46:42.725Z,51.19
2023-03-01T00:49:11.280Z,51.31
2023-03-01T00:51:42.607Z,51.29
2023-03-01T00:54:11.554Z,51.37
2023-03-01T00:56:40.226Z,51.41
2023-03-01T00:59:08.600Z,51.54
2023-03-01T01:01:39.934Z,51.64
2023-03-01T01:04:11.514Z,52.22
2023-03-01T01:06:45.639Z,52.19
2023-03-01T01:09:19.648Z,52.22
2023-03-01T01:11:51.988Z,52.57
2023-03-01T01:14:20.571Z,52.72
2023-03-01T01:16:48.880Z,52.94
2023-03-01T01:19:17.569Z,53.00
2023-03-01T01:21:50.001Z,52.93
2023-03-01T01:24:19.244Z,53.09
2023-03-01T01:26:47.755Z,53.60
2023-03-01T01:29:16.285Z,53.34
2023-03-01T01:31:45.971Z,53.45
2023-03-01T01:34:18.380Z,53.42
2023-03-01T01:36:55.177Z,53.61
2023-03-01T01:39:23.538Z,53.29
2023-03-01T01:41:51.932Z,53.18
2023-03-01T01:44:24.758Z,52.81
2023-03-01T01:47:28.872Z,52.74
2023-03-01T01:49:57.842Z,52.76
2023-03-01T01:52:36.150Z,52.49
2023-03-01T01:55:11.493Z,52.26
2023-03-01T01:57:50.051Z,52.31
2023-03-01T02:00:21.364Z,52.11
2023-03-01T02:03:37.539Z,52.21
2023-03-01T02:06:30.455Z,52.21
2023-03-01T02:09:03.482Z,52.24
2023-03-01T02:11:34.057Z,52.06
2023-03-01T02:14:02.328Z,52.00
2023-03-01T02:16:32.602Z,51.76
2023-03-01T02:19:02.242Z,51.75
2023-03-01T02:21:45.913Z,51.88
2023-03-01T02:24:24.735Z,51.74
2023-03-01T02:26:58.406Z,51.60
2023-03-01T02:29:29.706Z,51.72
2023-03-01T02:32:02.936Z,51.76
2023-03-01T02:34:33.709Z,51.99
2023-03-01T02:37:06.238Z,52.06
2023-03-01T02:39:43.332Z,52.08
2023-03-01T02:42:21.872Z,51.83
2023-03-01T02:44:51.250Z,51.76
2023-03-01T02:47:19.598Z,51.72
2023-03-01T02:49:48.460Z,51.48
2023-03-01T02:52:50.170Z,51.68
2023-03-01T02:55:19.699Z,52.07
2023-03-01T02:57:52.912Z,51.91
2023-03-01T03:00:51.614Z,52.25
2023-03-01T03:03:22.494Z,52.55
2023-03-01T03:05:51.155Z,52.55
2023-03-01T03:08:25.503Z,52.64
2023-03-01T03:10:54.514Z,52.76
2023-03-01T03:13:24.209Z,53.00
2023-03-01T03:15:52.568Z,52.81
2023-03-01T03:18:21.286Z,52.73
2023-03-01T03:20:54.514Z,52.57
2023-03-01T03:23:23.803Z,52.56
2023-03-01T03:25:55.052Z,52.49
2023-03-01T03:28:23.334Z,52.41
2023-03-01T03:30:52.361Z,52.51
2023-03-01T03:33:20.918Z,52.77
2023-03-01T03:35:52.467Z,52.77
2023-03-01T03:38:23.253Z,53.11
2023-03-01T03:41:02.260Z,53.32
2023-03-01T03:43:33.023Z,53.60
2023-03-01T03:46:07.036Z,54.39
2023-03-01T03:48:38.092Z,54.39
2023-03-01T03:51:07.443Z,54.32
2023-03-01T03:53:35.674Z,54.68
2023-03-01T03:56:05.667Z,54.85
2023-03-01T03:58:35.248Z,54.90
2023-03-01T04:01:09.148Z,55.48
2023-03-01T04:03:37.535Z,55.07
2023-03-01T04:06:06.431Z,54.74
2023-03-01T04:08:35.127Z,54.88
2023-03-01T04:11:25.552Z,54.91
2023-03-01T04:13:55.804Z,54.84
2023-03-01T04:16:25.195Z,54.73
2023-03-01T04:18:54.813Z,54.72
2023-03-01T04:21:23.252Z,54.55
2023-03-01T04:23:53.856Z,53.99
2023-03-01T04:26:22.441Z,54.04
2023-03-01T04:28:51.660Z,53.90
2023-03-01T04:31:22.649Z,53.83
2023-03-01T04:33:56.418Z,53.68
2023-03-01T04:36:30.039Z,53.55
2023-03-01T04:38:58.774Z,53.53
2023-03-01T04:41:27.427Z,53.58
2023-03-01T04:43:56.314Z,53.84
2023-03-01T04:46:25.082Z,53.98
2023-03-01T04:48:53.461Z,54.05
2023-03-01T04:51:21.918Z,53.83
2023-03-01T04:53:50.892Z,53.87
2023-03-01T04:56:20.067Z,53.84
2023-03-01T04:58:48.603Z,54.30
2023-03-01T05:01:20.120Z,54.22
2023-03-01T05:03:50.714Z,54.84
2023-03-01T05:06:22.499Z,55.37
2023-03-01T05:08:51.080Z,55.62
2023-03-01T05:11:19.445Z,55.51
2023-03-01T05:13:47.874Z,55.37
2023-03-01T05:16:16.482Z,55.40
2023-03-01T05:18:44.915Z,55.18
2023-03-01T05:21:17.632Z,55.19
2023-03-01T05:23:49.451Z,55.67
2023-03-01T05:26:28.844Z,55.49
2023-03-01T05:29:00.872Z,55.15
2023-03-01T05:31:32.059Z,55.04
2023-03-01T05:34:00.821Z,54.96
2023-03-01T05:36:29.693Z,54.94
2023-03-01T05:38:58.052Z,54.98
2023-03-01T05:41:26.476Z,55.04
2023-03-01T05:43:54.844Z,55.11
2023-03-01T05:46:25.669Z,55.35
2023-03-01T05:48:53.995Z,55.30
2023-03-01T05:51:25.375Z,55.31
2023-03-01T05:53:53.754Z,55.32
2023-03-01T05:56:23.733Z,55.62
2023-03-01T05:58:52.309Z,55.69
2023-03-01T06:01:20.574Z,56.09
2023-03-01T06:03:49.008Z,56.06
2023-03-01T06:06:17.056Z,56.02
2023-03-01T06:08:48.671Z,56.42
2023-03-01T06:11:17.706Z,56.53
2023-03-01T06:13:46.520Z,56.45
2023-03-01T06:16:15.619Z,56.33
2023-03-01T06:18:44.094Z,56.71
2023-03-01T06:21:12.633Z,56.84
2023-03-01T06:23:41.491Z,56.51
2023-03-01T06:26:10.826Z,56.35
2023-03-01T06:28:39.110Z,56.18
2023-03-01T06:31:10.099Z,55.95
2023-03-01T06:33:38.525Z,55.77
2023-03-01T06:36:07.361Z,55.86
2023-03-01T06:38:35.995Z,55.73
2023-03-01T06:41:04.474Z,55.47
2023-03-01T06:43:32.956Z,55.27
2023-03-01T06:46:01.949Z,55.08
2023-03-01T06:48:33.596Z,55.01
2023-03-01T06:51:02.623Z,55.11
2023-03-01T06:53:31.473Z,55.09
2023-03-01T06:56:03.334Z,55.02
2023-03-01T06:58:31.632Z,55.21
2023-03-01T07:01:01.056Z,54.95
2023-03-01T07:03:29.559Z,54.55
2023-03-01T07:05:57.918Z,54.69
2023-03-01T07:08:26.220Z,55.39
2023-03-01T07:10:58.632Z,55.50
2023-03-01T07:13:26.912Z,55.58
2023-03-01T07:15:55.197Z,55.81
2023-03-01T07:18:25.674Z,55.79
2023-03-01T07:20:53.886Z,55.61
2023-03-01T07:23:22.155Z,55.32
2023-03-01T07:25:55.298Z,55.20
2023-03-01T07:28:26.697Z,55.17
2023-03-01T07:30:55.498Z,55.60
2023-03-01T07:33:24.780Z,55.25
2023-03-01T07:35:59.266Z,55.66
2023-03-01T07:38:30.758Z,55.47
2023-03-01T07:41:04.820Z,55.10
2023-03-01T07:43:33.242Z,55.47
2023-03-01T07:46:02.917Z,54.88
2023-03-01T07:48:32.675Z,55.59
2023-03-01T07:51:02.919Z,55.55
2023-03-01T07:53:32.603Z,55.34
2023-03-01T07:56:13.390Z,54.64
2023-03-01T07:58:43.651Z,55.01
2023-03-01T08:01:17.923Z,55.37
2023-03-01T08:03:46.374Z,55.19
2023-03-01T08:06:17.039Z,54.97
2023-03-01T08:08:46.534Z,54.72
2023-03-01T08:11:16.993Z,54.46
2023-03-01T08:13:51.044Z,54.39
2023-03-01T08:16:19.718Z,54.75
2023-03-01T08:18:48.035Z,54.68
2023-03-01T08:21:19.061Z,54.93
2023-03-01T08:23:47.206Z,54.85
2023-03-01T08:26:19.722Z,54.97
2023-03-01T08:28:50.062Z,54.74
2023-03-01T08:31:31.898Z,54.75
2023-03-01T08:34:02.737Z,55.11
2023-03-01T08:36:34.952Z,55.16
2023-03-01T08:39:03.886Z,55.37
2023-03-01T08:41:32.482Z,55.53
2023-03-01T08:44:00.891Z,55.40
2023-03-01T08:46:32.678Z,55.46
2023-03-01T08:49:04.040Z,55.07
2023-03-01T08:51:37.899Z,54.85
2023-03-01T08:54:08.001Z,54.78
2023-03-01T08:56:36.399Z,54.89
2023-03-01T08:59:05.257Z,54.74
2023-03-01T09:01:34.742Z,54.93
2023-03-01T09:04:03.099Z,54.93
2023-03-01T09:06:35.534Z,55.18
2023-03-01T09:09:06.092Z,55.16
2023-03-01T09:11:34.448Z,54.99
2023-03-01T09:14:06.276Z,55.07
2023-03-01T09:16:37.249Z,54.87
2023-03-01T09:19:06.132Z,54.84
2023-03-01T09:21:40.462Z,54.80
2023-03-01T09:24:15.547Z,54.95
2023-03-01T09:26:44.443Z,55.27
2023-03-01T09:29:12.926Z,55.04
2023-03-01T09:31:41.185Z,54.79
2023-03-01T09:34:09.882Z,54.60
2023-03-01T09:36:38.899Z,54.53
2023-03-01T09:39:10.060Z,54.31
2023-03-01T09:42:01.320Z,54.01
2023-03-01T09:44:47.624Z,54.07
2023-03-01T09:47:23.111Z,54.27
2023-03-01T09:50:13.145Z,54.43
2023-03-01T09:53:08.735Z,54.43
2023-03-01T09:56:02.470Z,54.28
2023-03-01T09:59:06.193Z,54.27
2023-03-01T10:01:59.487Z,54.29
2023-03-01T10:04:47.683Z,54.34
2023-03-01T10:07:25.238Z,54.23
2023-03-01T10:09:56.878Z,54.28
2023-03-01T10:12:37.262Z,54.52
2023-03-01T10:15:13.887Z,54.41
2023-03-01T10:17:45.281Z,54.23
2023-03-01T10:20:24.503Z,54.08
2023-03-01T10:22:53.662Z,54.00
2023-03-01T10:25:42.505Z,53.71
2023-03-01T10:28:37.385Z,53.61
2023-03-01T10:31:09.681Z,54.07
2023-03-01T10:33:40.807Z,53.60
2023-03-01T10:36:09.956Z,53.56
2023-03-01T10:38:55.205Z,53.39
2023-03-01T10:41:26.144Z,53.29
2023-03-01T10:44:00.823Z,53.20
2023-03-01T10:46:36.031Z,53.07
2023-03-01T10:49:16.907Z,52.89
2023-03-01T10:51:48.976Z,52.65
2023-03-01T10:54:32.283Z,52.92
2023-03-01T10:57:07.103Z,52.51
2023-03-01T10:59:41.292Z,52.40
2023-03-01T11:02:46.097Z,52.53
2023-03-01T11:05:14.587Z,52.24
2023-03-01T11:07:56.612Z,52.05
2023-03-01T11:10:32.015Z,51.64
2023-03-01T11:13:21.336Z,51.41
2023-03-01T11:16:13.783Z,51.67
2023-03-01T11:18:48.049Z,51.55
2023-03-01T11:21:19.435Z,51.44
2023-03-01T11:23:48.314Z,51.19
2023-03-01T11:26:18.657Z,50.80
2023-03-01T11:28:52.741Z,50.53
2023-03-01T11:31:22.561Z,49.53
2023-03-01T11:34:08.637Z,48.99
2023-03-01T11:36:49.830Z,47.98
2023-03-01T11:39:46.538Z,45.40
2023-03-01T11:42:24.737Z,41.46
2023-03-01T11:44:59.829Z,38.15
2023-03-01T11:47:40.022Z,34.75
2023-03-01T11:50:17.154Z,31.56
2023-03-01T11:53:16.552Z,29.71
2023-03-01T11:56:05.545Z,27.16
2023-03-01T11:58:33.797Z,24.63
2023-03-01T12:01:29.672Z,22.97
2023-03-01T12:04:20.381Z,21.81
2023-03-01T12:07:12.607Z,20.60
2023-03-01T12:09:59.121Z,18.97
2023-03-01T12:12:40.206Z,17.74
2023-03-01T12:15:33.609Z,17.18
2023-03-01T12:18:27.121Z,17.04
2023-03-01T12:21:24.895Z,17.29
2023-03-01T12:24:11.898Z,16.96
2023-03-01T12:27:09.079Z,16.28
2023-03-01T12:29:52.205Z,16.17
2023-03-01T12:32:34.063Z,16.42
2023-03-01T12:35:22.467Z,16.35
2023-03-01T12:38:02.422Z,16.15
2023-03-01T12:40:46.635Z,15.61
2023-03-01T12:43:29.856Z,15.08
2023-03-01T12:46:26.100Z,14.63
2023-03-01T12:49:12.250Z,14.11
2023-03-01T12:51:44.478Z,14.03
2023-03-01T12:54:27.250Z,13.71
2023-03-01T12:56:58.696Z,13.26
2023-03-01T12:59:57.086Z,12.54
2023-03-01T13:02:40.584Z,12.32
2023-03-01T13:05:35.979Z,12.15
2023-03-01T13:08:22.056Z,12.14
2023-03-01T13:11:01.515Z,11.79
2023-03-01T13:13:31.073Z,11.57
2023-03-01T13:16:31.701Z,11.32
2023-03-01T13:19:45.608Z,11.14
2023-03-01T13:22:39.742Z,11.21
2023-03-01T13:25:15.878Z,11.12
2023-03-01T13:27:48.385Z,10.90
2023-03-01T13:30:41.127Z,10.80
2023-03-01T13:33:34.465Z,10.80
2023-03-01T13:36:03.922Z,10.93
2023-03-01T13:38:58.719Z,11.61
2023-03-01T13:41:45.210Z,12.14
2023-03-01T13:44:15.048Z,12.10
2023-03-01T13:46:46.230Z,12.02
2023-03-01T13:49:46.271Z,12.47
2023-03-01T13:52:42.282Z,12.60
2023-03-01T13:55:25.359Z,12.28
2023-03-01T13:58:00.254Z,13.57
2023-03-01T14:00:40.385Z,14.08
2023-03-01T14:03:19.871Z,13.88
2023-03-01T14:06:14.977Z,13.57
2023-03-01T14:08:45.443Z,13.32
2023-03-01T14:11:51.537Z,13.08
2023-03-01T14:14:43.403Z,12.96
2023-03-01T14:17:42.742Z,13.88
2023-03-01T14:20:21.950Z,15.05
2023-03-01T14:22:56.065Z,15.62
2023-03-01T14:25:36.586Z,16.53
2023-03-01T14:28:16.959Z,17.34
2023-03-01T14:30:53.728Z,18.05
2023-03-01T14:33:26.370Z,17.95
2023-03-01T14:36:04.087Z,18.04
2023-03-01T14:38:38.414Z,17.70
2023-03-01T14:41:09.259Z,17.83
2023-03-01T14:43:41.507Z,16.93
2023-03-01T14:46:20.533Z,16.55
2023-03-01T14:48:58.206Z,16.36
2023-03-01T14:51:27.074Z,16.10
2023-03-01T14:53:58.999Z,15.74
2023-03-01T14:56:45.334Z,15.37
2023-03-01T14:59:14.644Z,15.07
2023-03-01T15:01:46.428Z,14.70
2023-03-01T15:04:15.807Z,14.39
2023-03-01T15:06:45.562Z,14.29
2023-03-01T15:09:18.223Z,14.15
2023-03-01T15:11:46.748Z,14.02
2023-03-01T15:14:47.373Z,14.08
2023-03-01T15:17:36.215Z,13.84
2023-03-01T15:20:08.564Z,14.00
2023-03-01T15:22:39.906Z,14.32
2023-03-01T15:25:20.005Z,15.31
2023-03-01T15:27:51.064Z,18.09
2023-03-01T15:30:28.600Z,19.63
2023-03-01T15:33:22.182Z,21.33
2023-03-01T15:35:54.774Z,23.01
2023-03-01T15:38:39.299Z,24.39
2023-03-01T15:41:28.335Z,25.89
2023-03-01T15:43:59.823Z,27.38
2023-03-01T15:46:35.532Z,28.46
2023-03-01T15:49:06.792Z,29.37
2023-03-01T15:51:37.934Z,30.30
2023-03-01T15:54:21.328Z,31.15
2023-03-01T15:56:50.265Z,31.94
2023-03-01T15:59:23.689Z,32.54
2023-03-01T16:01:52.206Z,33.23
2023-03-01T16:04:24.426Z,33.76
2023-03-01T16:06:56.272Z,34.23
2023-03-01T16:09:30.976Z,34.65
2023-03-01T16:12:00.533Z,35.18
2023-03-01T16:14:30.662Z,35.73
2023-03-01T16:17:02.315Z,36.09
2023-03-01T16:19:30.462Z,36.52
2023-03-01T16:21:58.804Z,36.78
2023-03-01T16:24:27.356Z,37.20
2023-03-01T16:26:58.352Z,37.52
2023-03-01T16:29:27.454Z,37.86
2023-03-01T16:31:56.280Z,38.32
2023-03-01T16:34:29.954Z,38.75
2023-03-01T16:36:58.460Z,38.86
2023-03-01T16:39:30.025Z,39.11
2023-03-01T16:42:01.670Z,39.11
2023-03-01T16:44:30.032Z,39.33
2023-03-01T16:46:58.464Z,39.57
2023-03-01T16:49:26.870Z,39.77
2023-03-01T16:51:55.650Z,39.99
2023-03-01T16:54:24.159Z,40.27
2023-03-01T16:57:12.335Z,40.77
2023-03-01T16:59:40.711Z,40.83
2023-03-01T17:02:14.359Z,41.13
2023-03-01T17:04:43.254Z,41.32
2023-03-01T17:07:15.236Z,41.60
2023-03-01T17:09:43.882Z,41.73
2023-03-01T17:12:18.703Z,41.84
2023-03-01T17:14:46.910Z,42.02
2023-03-01T17:17:15.358Z,42.48
2023-03-01T17:19:44.747Z,42.61
2023-03-01T17:22:14.277Z,42.50
2023-03-01T17:24:42.944Z,43.03
2023-03-01T17:27:13.410Z,43.33
2023-03-01T17:29:46.928Z,43.57
2023-03-01T17:32:17.609Z,43.48
2023-03-01T17:34:50.496Z,43.61
2023-03-01T17:37:21.551Z,44.04
2023-03-01T17:39:49.655Z,43.94
2023-03-01T17:42:22.041Z,43.79
2023-03-01T17:44:50.511Z,44.32
2023-03-01T17:47:21.566Z,44.41
2023-03-01T17:49:52.496Z,44.80
2023-03-01T17:52:24.135Z,44.43
2023-03-01T17:54:52.530Z,45.17
2023-03-01T17:57:22.073Z,45.15
2023-03-01T17:59:50.421Z,45.24
2023-03-01T18:02:19.661Z,45.08
2023-03-01T18:04:47.917Z,45.48
2023-03-01T18:07:16.705Z,45.51
2023-03-01T18:09:45.264Z,45.67
2023-03-01T18:12:16.843Z,45.74
2023-03-01T18:14:45.208Z,46.05
2023-03-01T18:17:13.471Z,46.57
2023-03-01T18:19:42.012Z,46.55
2023-03-01T18:22:10.633Z,46.74
2023-03-01T18:24:40.193Z,46.73
2023-03-01T18:27:08.858Z,46.70
2023-03-01T18:29:38.063Z,47.07
2023-03-01T18:32:07.063Z,47.17
2023-03-01T18:34:35.954Z,47.51
2023-03-01T18:37:12.134Z,47.42
2023-03-01T18:39:41.874Z,47.25
2023-03-01T18:42:10.941Z,47.28
2023-03-01T18:44:39.258Z,47.64
2023-03-01T18:47:10.586Z,48.02
2023-03-01T18:49:38.969Z,48.68
2023-03-01T18:52:07.667Z,48.98
2023-03-01T18:54:36.382Z,49.27
2023-03-01T18:57:05.952Z,49.82
2023-03-01T18:59:34.272Z,50.39
2023-03-01T19:02:04.976Z,51.04
2023-03-01T19:04:33.179Z,51.13
2023-03-01T19:07:02.740Z,51.62
2023-03-01T19:09:31.174Z,51.82
2023-03-01T19:12:02.250Z,51.83
2023-03-01T19:14:30.544Z,52.05
2023-03-01T19:16:59.280Z,52.16
2023-03-01T19:19:27.642Z,52.38
2023-03-01T19:22:05.658Z,52.70
2023-03-01T19:24:37.813Z,52.37
2023-03-01T19:27:06.359Z,52.48
2023-03-01T19:29:35.575Z,52.37
2023-03-01T19:32:04.025Z,52.33
2023-03-01T19:34:32.348Z,52.38
2023-03-01T19:37:00.760Z,52.52
2023-03-01T19:39:28.950Z,52.48
2023-03-01T19:41:57.523Z,52.72
2023-03-01T19:44:25.916Z,52.85
2023-03-01T19:47:00.104Z,52.69
2023-03-01T19:49:32.533Z,52.81
2023-03-01T19:52:01.136Z,52.73
2023-03-01T19:54:29.322Z,52.49
2023-03-01T19:56:57.829Z,52.22
2023-03-01T19:59:28.108Z,52.39
2023-03-01T20:01:59.871Z,52.59
2023-03-01T20:04:28.414Z,52.93
2023-03-01T20:06:56.571Z,52.94
2023-03-01T20:09:26.733Z,52.83
2023-03-01T20:11:55.347Z,52.75
2023-03-01T20:14:24.362Z,52.47
2023-03-01T20:16:55.507Z,52.34
2023-03-01T20:19:23.803Z,52.17
2023-03-01T20:21:52.233Z,52.25
2023-03-01T20:24:20.751Z,52.37
2023-03-01T20:26:51.124Z,52.45
2023-03-01T20:29:25.048Z,52.60
2023-03-01T20:31:53.841Z,52.60
2023-03-01T20:34:22.342Z,52.65
2023-03-01T20:36:52.101Z,52.82
2023-03-01T20:39:20.863Z,52.70
2023-03-01T20:41:50.718Z,52.40
2023-03-01T20:44:18.878Z,52.15
2023-03-01T20:46:48.468Z,52.00
2023-03-01T20:49:17.687Z,51.99
2023-03-01T20:51:49.718Z,52.22
2023-03-01T20:54:18.562Z,52.95
2023-03-01T20:56:48.116Z,53.17
2023-03-01T20:59:16.970Z,53.00
2023-03-01T21:01:45.550Z,52.88
2023-03-01T21:04:14.506Z,53.41
2023-03-01T21:06:43.442Z,53.66
2023-03-01T21:09:12.505Z,53.79
2023-03-01T21:11:41.007Z,53.70
2023-03-01T21:14:10.327Z,53.57
2023-03-01T21:16:39.306Z,53.66
2023-03-01T21:19:08.570Z,53.52
2023-03-01T21:21:37.554Z,52.99
2023-03-01T21:24:06.906Z,53.15
2023-03-01T21:26:37.862Z,53.37
2023-03-01T21:29:10.309Z,53.02
2023-03-01T21:31:38.717Z,53.47
2023-03-01T21:34:07.390Z,53.34
2023-03-01T21:36:36.905Z,53.82
2023-03-01T21:39:07.755Z,53.74
2023-03-01T21:41:38.245Z,53.45
2023-03-01T21:44:07.654Z,53.62
2023-03-01T21:46:39.184Z,53.55
2023-03-01T21:49:09.148Z,53.87
2023-03-01T21:51:37.853Z,53.98
2023-03-01T21:54:12.248Z,53.92
2023-03-01T21:56:42.027Z,53.70
2023-03-01T21:59:20.786Z,53.65
2023-03-01T22:01:58.694Z,53.61
2023-03-01T22:04:27.220Z,53.56
2023-03-01T22:06:59.016Z,54.00
2023-03-01T22:09:32.404Z,54.55
2023-03-01T22:12:03.885Z,54.82
2023-03-01T22:14:33.273Z,55.04
2023-03-01T22:17:01.723Z,54.46
2023-03-01T22:19:36.042Z,54.54
2023-03-01T22:22:04.579Z,54.83
2023-03-01T22:24:35.850Z,55.13
2023-03-01T22:27:04.429Z,55.07
2023-03-01T22:29:33.785Z,55.25
2023-03-01T22:32:02.435Z,55.49
2023-03-01T22:34:30.982Z,55.21
2023-03-01T22:36:59.568Z,54.87
2023-03-01T22:39:28.040Z,54.85
2023-03-01T22:41:56.460Z,55.22
2023-03-01T22:44:24.852Z,55.42
2023-03-01T22:46:54.607Z,55.22
2023-03-01T22:49:23.364Z,55.01
2023-03-01T22:51:54.722Z,54.80
2023-03-01T22:54:25.976Z,54.70
2023-03-01T22:56:58.363Z,54.49
2023-03-01T22:59:27.099Z,54.52
2023-03-01T23:01:56.426Z,54.20
2023-03-01T23:04:27.249Z,54.59
2023-03-01T23:06:55.890Z,54.80
2023-03-01T23:09:35.008Z,55.14
2023-03-01T23:12:07.196Z,56.17
2023-03-01T23:14:36.048Z,56.74
2023-03-01T23:17:05.734Z,57.52
2023-03-01T23:19:34.647Z,57.47
2023-03-01T23:22:03.163Z,57.70
2023-03-01T23:24:32.383Z,57.00
2023-03-01T23:27:02.534Z,57.40
2023-03-01T23:29:32.654Z,57.64
2023-03-01T23:32:01.631Z,57.69
2023-03-01T23:34:30.231Z,57.86
2023-03-01T23:37:01.006Z,57.71
2023-03-01T23:39:30.345Z,57.66
2023-03-01T23:41:59.103Z,57.80
2023-03-01T23:44:27.782Z,58.03
2023-03-01T23:46:56.589Z,58.47
2023-03-01T23:49:25.857Z,58.14
2023-03-01T23:51:54.714Z,58.52
2023-03-01T23:54:26.039Z,58.47
2023-03-01T23:56:54.676Z,59.07
2023-03-01T23:59:24.407Z,58.92
